Time;durP1;ratioP1;P1;durP2;ratioP2;P2;SDS_P1;SDS_P2;PMS_P1;PMS_P2;Temp;Humidity;BMP_temperature;BMP_pressure;BME280_temperature;BME280_humidity;BME280_pressure;Samples;Min_cycle;Max_cycle;Signal;HPM_P1;HPM_P2
2021/04/01 00:01:33;;;;;;;42.25;17.45;;;;;;;11.21;56.78;100967.50;4989807;28;20050;-75
2021/04/01 00:04:00;;;;;;;34.72;18.15;;;;;;;11.29;57.05;100964.44;4991708;28;20058;-73
2021/04/01 00:06:27;;;;;;;33.83;16.58;;;;;;;11.24;57.31;100958.59;5001880;28;20054;-74
2021/04/01 00:08:53;;;;;;;31.75;16.90;;;;;;;11.22;56.73;100963.09;4989936;28;20572;-73
2021/04/01 00:11:20;;;;;;;32.15;17.73;;;;;;;11.17;56.82;100958.09;4992422;28;20050;-74
2021/04/01 00:13:47;;;;;;;35.53;17.50;;;;;;;11.11;57.00;100947.88;4994536;28;20291;-75
2021/04/01 00:16:16;;;;;;;33.30;15.30;;;;;;;11.11;56.71;100951.34;4956656;28;20058;-73
2021/04/01 00:18:43;;;;;;;30.65;16.20;;;;;;;11.13;56.74;100943.38;4990710;28;20408;-74
2021/04/01 00:21:10;;;;;;;30.27;15.68;;;;;;;11.12;56.75;100946.94;4987656;28;20064;-74
2021/04/01 00:23:37;;;;;;;29.40;15.80;;;;;;;11.14;56.77;100939.81;4972541;28;20056;-73
2021/04/01 00:26:03;;;;;;;28.27;15.07;;;;;;;11.22;56.50;100936.75;4997264;28;20512;-72
2021/04/01 00:28:30;;;;;;;29.70;15.40;;;;;;;11.14;56.75;100935.38;4991497;28;20057;-74
2021/04/01 00:30:57;;;;;;;33.03;16.27;;;;;;;11.15;56.54;100936.22;5006422;28;20046;-72
2021/04/01 00:33:23;;;;;;;28.42;15.73;;;;;;;11.14;56.34;100937.19;4989612;28;20046;-73
2021/04/01 00:35:50;;;;;;;27.02;14.98;;;;;;;11.16;55.71;100936.13;4976721;28;20054;-74
2021/04/01 00:38:17;;;;;;;28.50;14.48;;;;;;;11.18;55.85;100929.94;4988228;28;20050;-73
2021/04/01 00:40:44;;;;;;;30.10;14.57;;;;;;;11.17;55.80;100929.09;4987066;28;20054;-73
2021/04/01 00:43:11;;;;;;;32.15;14.23;;;;;;;11.13;55.92;100922.31;4969827;28;20057;-73
2021/04/01 00:45:37;;;;;;;27.65;14.55;;;;;;;11.13;55.76;100925.78;4989043;28;20053;-73
2021/04/01 00:48:05;;;;;;;28.40;14.63;;;;;;;11.09;55.42;100923.41;4976523;28;20080;-73
2021/04/01 00:50:32;;;;;;;25.65;14.23;;;;;;;11.06;55.58;100921.78;4967572;28;20061;-72
2021/04/01 00:52:59;;;;;;;26.70;13.82;;;;;;;11.07;55.90;100920.00;4970738;28;20054;-73
2021/04/01 00:55:26;;;;;;;31.52;15.07;;;;;;;11.09;55.74;100926.91;4971552;28;20527;-74
2021/04/01 00:57:56;;;;;;;24.35;13.85;;;;;;;11.05;55.61;100919.25;4993367;28;20061;-74
2021/04/01 01:00:28;;;;;;;29.33;14.18;;;;;;;11.03;56.05;100918.47;4988597;28;20073;-74
2021/04/01 01:02:55;;;;;;;27.00;13.57;;;;;;;11.01;56.02;100918.56;4983493;28;20149;-74
2021/04/01 01:05:23;;;;;;;29.08;14.40;;;;;;;10.94;56.62;100908.44;5000082;28;20396;-74
2021/04/01 01:07:50;;;;;;;25.45;14.50;;;;;;;10.85;56.59;100910.69;4995189;28;20504;-74
2021/04/01 01:10:22;;;;;;;28.77;14.52;;;;;;;10.86;57.07;100901.84;4988061;28;20537;-74
2021/04/01 01:12:49;;;;;;;26.15;14.45;;;;;;;10.84;57.11;100901.06;4974843;28;20050;-73
2021/04/01 01:15:15;;;;;;;26.55;13.77;;;;;;;10.82;57.13;100905.56;4971041;28;20178;-72
2021/04/01 01:21:56;;;;;;;25.65;14.45;;;;;;;10.87;56.71;100892.16;4980650;28;20148;-73
2021/04/01 01:24:22;;;;;;;25.70;13.57;;;;;;;10.86;56.52;100895.72;4985108;28;20073;-74
2021/04/01 01:26:49;;;;;;;27.20;14.00;;;;;;;10.83;57.35;100888.00;4968797;28;20065;-74
2021/04/01 01:29:16;;;;;;;28.38;14.13;;;;;;;10.72;57.84;100893.03;4969910;28;20094;-73
2021/04/01 01:31:47;;;;;;;29.35;14.52;;;;;;;10.59;57.89;100885.78;4952239;28;20050;-75
2021/04/01 01:34:14;;;;;;;26.80;12.98;;;;;;;10.52;57.93;100888.81;4987567;28;20504;-74
2021/04/01 01:36:41;;;;;;;25.77;13.70;;;;;;;10.51;57.30;100882.72;4977762;28;20066;-74
2021/04/01 01:39:07;;;;;;;23.88;13.02;;;;;;;10.55;56.72;100883.41;4989613;28;20428;-73
2021/04/01 01:41:34;;;;;;;26.35;13.23;;;;;;;10.59;56.77;100884.94;4983473;28;20042;-74
2021/04/01 01:44:01;;;;;;;28.10;13.85;;;;;;;10.65;56.53;100885.44;4988273;28;20057;-74
2021/04/01 01:46:28;;;;;;;29.35;13.82;;;;;;;10.67;56.11;100884.50;4974453;28;20054;-72
2021/04/01 01:48:56;;;;;;;28.77;13.30;;;;;;;10.67;55.68;100887.13;5005354;28;20038;-73
2021/04/01 01:51:23;;;;;;;24.38;14.02;;;;;;;10.69;56.49;100883.50;4971401;28;20621;-73
2021/04/01 01:53:50;;;;;;;24.13;13.98;;;;;;;10.81;55.76;100881.97;4971705;28;20386;-72
2021/04/01 01:56:19;;;;;;;25.98;13.25;;;;;;;10.85;55.92;100875.56;4975141;28;20481;-73
2021/04/01 01:58:47;;;;;;;24.70;12.68;;;;;;;10.93;55.79;100878.63;4995051;28;20499;-72
2021/04/01 02:01:15;;;;;;;25.58;12.50;;;;;;;11.07;55.04;100880.47;4982763;28;20034;-73
2021/04/01 02:03:42;;;;;;;24.40;13.07;;;;;;;11.24;54.58;100880.38;4989765;28;20086;-74
2021/04/01 02:06:13;;;;;;;22.52;12.60;;;;;;;11.30;54.44;100876.53;4998153;28;20065;-72
2021/04/01 02:08:39;;;;;;;25.98;12.98;;;;;;;11.50;53.84;100883.28;4984978;28;20058;-72
2021/04/01 02:11:07;;;;;;;22.50;11.75;;;;;;;11.55;53.31;100883.88;4966450;28;20046;-73
2021/04/01 02:13:34;;;;;;;22.65;11.95;;;;;;;11.51;53.26;100885.81;4989397;28;20523;-75
2021/04/01 02:16:00;;;;;;;22.60;12.65;;;;;;;11.58;52.77;100875.78;4987804;28;20046;-71
2021/04/01 02:18:29;;;;;;;24.88;13.15;;;;;;;11.73;52.21;100874.00;5012749;23;20064;-71
2021/04/01 02:20:58;;;;;;;17.77;10.80;;;;;;;11.78;52.15;100867.53;4996134;28;20080;-71
2021/04/01 02:23:30;;;;;;;23.10;12.55;;;;;;;11.83;52.44;100865.47;4989179;28;20623;-70
2021/04/01 02:25:59;;;;;;;26.27;11.38;;;;;;;11.96;51.97;100865.59;4988931;28;20133;-71
2021/04/01 02:28:28;;;;;;;21.98;11.63;;;;;;;12.04;51.57;100857.22;4995305;28;20053;-71
2021/04/01 02:30:57;;;;;;;26.08;11.57;;;;;;;11.97;51.38;100864.66;4995179;28;20052;-71
2021/04/01 02:33:27;;;;;;;23.63;12.68;;;;;;;12.00;51.58;100858.34;4990700;28;20060;-71
2021/04/01 02:35:55;;;;;;;21.02;11.52;;;;;;;12.04;51.17;100860.69;4998209;28;20054;-71
2021/04/01 02:38:22;;;;;;;24.35;11.48;;;;;;;12.02;51.52;100859.97;5025122;28;20056;-72
2021/04/01 02:40:50;;;;;;;20.75;11.48;;;;;;;11.96;51.74;100854.19;5002926;28;20052;-72
2021/04/01 02:43:28;;;;;;;23.92;12.82;;;;;;;11.94;51.76;100851.66;5000407;28;20064;-70
2021/04/01 02:45:55;;;;;;;20.00;11.35;;;;;;;11.92;51.99;100861.44;4985573;28;20037;-71
2021/04/01 02:48:22;;;;;;;22.65;12.15;;;;;;;12.00;51.77;100860.97;4997390;28;20068;-71
2021/04/01 02:50:50;;;;;;;23.35;12.02;;;;;;;12.04;51.20;100860.69;4985768;28;20042;-73
2021/04/01 02:53:18;;;;;;;21.90;11.55;;;;;;;12.04;51.25;100865.97;5011824;28;20077;-72
2021/04/01 02:55:44;;;;;;;23.40;11.82;;;;;;;11.97;51.89;100869.91;5011751;28;20049;-73
2021/04/01 02:58:11;;;;;;;22.88;12.27;;;;;;;11.88;51.99;100863.41;5023294;28;20073;-73
2021/04/01 03:00:38;;;;;;;28.33;12.48;;;;;;;11.91;51.77;100862.38;4973033;28;20081;-75
2021/04/01 03:03:11;;;;;;;20.98;11.32;;;;;;;11.85;52.24;100860.97;5015945;28;20057;-72
2021/04/01 03:05:38;;;;;;;25.45;11.85;;;;;;;11.86;51.98;100856.53;4974265;28;20129;-72
2021/04/01 03:08:06;;;;;;;21.92;10.98;;;;;;;11.85;52.21;100862.78;5023075;28;20512;-73
2021/04/01 03:10:33;;;;;;;21.65;11.10;;;;;;;11.83;52.26;100862.00;5001311;28;20058;-72
2021/04/01 03:12:59;;;;;;;22.27;12.65;;;;;;;11.85;51.91;100865.41;5004934;28;20060;-73
2021/04/01 03:15:26;;;;;;;26.88;11.65;;;;;;;12.03;51.31;100842.34;4999544;28;20594;-72
2021/04/01 03:17:53;;;;;;;25.42;11.35;;;;;;;11.86;51.73;100844.19;5003722;28;20060;-71
2021/04/01 03:20:20;;;;;;;21.45;11.50;;;;;;;11.81;51.91;100848.03;4993795;28;20041;-72
2021/04/01 03:22:46;;;;;;;19.63;10.85;;;;;;;11.78;52.23;100848.22;5001422;28;20069;-72
2021/04/01 03:25:14;;;;;;;17.75;11.02;;;;;;;11.74;52.12;100842.25;4987140;28;20133;-70
2021/04/01 03:27:41;;;;;;;21.85;11.98;;;;;;;11.62;52.46;100845.66;5012412;28;20054;-71
2021/04/01 03:30:12;;;;;;;26.42;11.65;;;;;;;11.54;53.02;100840.00;5013544;28;20075;-72
2021/04/01 03:32:41;;;;;;;22.17;12.45;;;;;;;11.46;53.54;100850.97;5021024;28;20069;-71
2021/04/01 03:35:13;;;;;;;21.17;11.45;;;;;;;11.51;53.36;100840.16;4986374;28;20538;-71
2021/04/01 03:37:41;;;;;;;23.50;12.18;;;;;;;11.58;53.59;100847.63;4987838;28;20041;-72
2021/04/01 03:40:08;;;;;;;20.00;11.18;;;;;;;11.55;53.49;100850.44;5003225;28;20070;-71
2021/04/01 03:42:37;;;;;;;25.48;13.18;;;;;;;11.57;53.48;100851.22;5010766;28;20045;-71
2021/04/01 03:45:09;;;;;;;19.98;11.60;;;;;;;11.62;53.18;100846.50;5014848;28;20056;-72
2021/04/01 03:47:37;;;;;;;24.85;12.18;;;;;;;11.49;53.61;100844.69;5031269;28;20052;-72
2021/04/01 03:50:09;;;;;;;22.73;12.00;;;;;;;11.42;53.81;100849.47;4996822;28;20071;-71
2021/04/01 03:52:38;;;;;;;25.92;13.27;;;;;;;11.35;54.37;100850.78;4997811;28;20045;-72
2021/04/01 03:57:46;;;;;;;26.08;12.48;;;;;;;11.28;54.69;100837.09;4993969;28;20054;-71
2021/04/01 04:00:18;;;;;;;29.33;12.63;;;;;;;11.36;54.82;100841.91;4987074;28;20392;-72
2021/04/01 04:02:56;;;;;;;30.65;12.38;;;;;;;11.35;54.82;100848.97;5004324;28;20041;-72
2021/04/01 04:05:37;;;;;;;23.50;11.07;;;;;;;11.24;55.09;100837.34;5003038;28;20046;-72
2021/04/01 04:13:58;;;;;;;24.70;11.60;;;;;;;11.24;54.92;100846.09;5019525;28;19941;-71
2021/04/01 04:16:25;;;;;;;19.25;10.85;;;;;;;11.23;54.78;100841.78;4992311;28;21302;-72
2021/04/01 04:18:51;;;;;;;20.27;11.77;;;;;;;11.18;55.31;100848.28;4987340;28;20138;-72
2021/04/01 04:21:19;;;;;;;26.85;12.82;;;;;;;11.32;55.14;100846.53;5002996;28;20144;-72
2021/04/01 04:23:46;;;;;;;27.85;12.50;;;;;;;11.33;55.13;100850.00;5004679;28;20054;-70
2021/04/01 04:26:14;;;;;;;23.90;12.13;;;;;;;11.35;55.06;100841.06;5002786;28;20049;-71
2021/04/01 04:28:41;;;;;;;22.42;11.85;;;;;;;11.48;54.62;100835.91;5004283;28;20128;-72
2021/04/01 04:31:09;;;;;;;27.02;12.52;;;;;;;11.30;55.01;100837.00;5017271;28;20056;-73
2021/04/01 04:33:36;;;;;;;25.25;12.27;;;;;;;11.30;54.96;100835.22;5004993;28;20132;-70
2021/04/01 04:36:06;;;;;;;23.23;11.55;;;;;;;11.41;54.95;100834.59;5008303;28;20049;-72
2021/04/01 04:38:33;;;;;;;26.15;13.95;;;;;;;11.45;54.74;100832.63;5006433;28;20046;-72
2021/04/01 04:41:00;;;;;;;27.77;13.20;;;;;;;11.45;54.70;100830.84;4982151;28;20055;-74
2021/04/01 04:43:32;;;;;;;24.60;12.95;;;;;;;11.37;55.21;100827.78;5011740;28;20608;-72
2021/04/01 04:45:59;;;;;;;25.92;13.30;;;;;;;11.34;55.34;100825.34;4996317;28;20041;-74
2021/04/01 04:48:26;;;;;;;24.60;11.73;;;;;;;11.34;55.58;100820.91;5003025;28;20137;-71
2021/04/01 04:50:54;;;;;;;24.08;13.93;;;;;;;11.48;54.85;100827.16;5009414;28;20050;-72
2021/04/01 04:53:21;;;;;;;28.77;12.60;;;;;;;11.50;54.57;100815.59;4990784;28;20048;-72
2021/04/01 04:58:38;;;;;;;24.73;13.27;;;;;;;11.57;54.61;100823.97;5005687;28;20157;-73
2021/04/01 05:09:05;;;;;;;28.00;12.65;;;;;;;11.65;54.31;100830.47;5000837;28;20084;-73
2021/04/01 05:11:33;;;;;;;39.50;12.70;;;;;;;11.71;54.28;100831.03;4977135;28;20049;-72
2021/04/01 05:14:00;;;;;;;27.85;13.07;;;;;;;11.66;54.31;100831.31;4999792;28;20087;-71
2021/04/01 05:16:27;;;;;;;27.50;13.70;;;;;;;11.76;54.11;100835.13;5013023;28;20046;-71
2021/04/01 05:18:56;;;;;;;29.90;13.38;;;;;;;11.71;54.39;100839.84;4985233;28;20045;-71
2021/04/01 05:21:30;;;;;;;30.08;12.85;;;;;;;11.74;54.54;100839.63;5001289;28;20643;-71
2021/04/01 05:23:57;;;;;;;29.65;13.60;;;;;;;11.83;53.75;100833.81;4992867;28;20052;-70
2021/04/01 05:29:00;;;;;;;32.67;15.40;;;;;;;11.86;53.86;100838.94;5002169;28;20077;-71
2021/04/01 05:31:29;;;;;;;30.73;13.85;;;;;;;11.93;53.96;100843.81;5023827;28;20143;-71
2021/04/01 05:33:57;;;;;;;25.33;14.32;;;;;;;11.99;53.74;100849.59;4992222;28;20064;-72
2021/04/01 05:36:27;;;;;;;29.15;15.35;;;;;;;11.81;53.94;100850.66;4985727;28;20061;-71
2021/04/01 05:38:56;;;;;;;25.70;14.57;;;;;;;11.85;53.83;100855.69;5009846;28;20148;-71
2021/04/01 05:41:26;;;;;;;35.50;15.63;;;;;;;11.86;54.12;100849.47;5005171;28;20758;-70
2021/04/01 05:44:01;;;;;;;35.80;14.45;;;;;;;11.95;54.12;100840.16;5008264;28;20042;-72
2021/04/01 05:46:43;;;;;;;25.67;13.80;;;;;;;12.01;53.97;100845.03;5004167;28;20500;-72
2021/04/01 05:49:23;;;;;;;29.70;14.82;;;;;;;12.07;54.31;100844.69;4992394;28;20081;-71
2021/04/01 05:52:29;;;;;;;28.15;13.98;;;;;;;12.21;53.69;100846.47;5015175;28;20133;-73
2021/04/01 05:58:01;;;;;;;25.48;13.88;;;;;;;12.15;53.28;100839.75;5010812;28;20061;-70
2021/04/01 06:00:51;;;;;;;30.52;14.07;;;;;;;12.32;53.19;100832.59;4986574;28;20128;-72
2021/04/01 06:03:40;;;;;;;27.88;13.75;;;;;;;12.42;52.74;100833.69;5012064;28;20050;-71
2021/04/01 06:06:09;;;;;;;28.83;15.32;;;;;;;12.47;52.68;100839.53;5006025;28;20084;-72
2021/04/01 06:08:40;;;;;;;36.25;15.48;;;;;;;12.40;52.83;100833.81;5008750;28;20508;-71
2021/04/01 06:11:07;;;;;;;32.75;15.35;;;;;;;12.50;52.87;100836.72;5006820;28;20455;-72
2021/04/01 06:13:42;;;;;;;26.50;13.63;;;;;;;12.54;52.87;100845.28;4991465;28;20049;-72
2021/04/01 06:16:11;;;;;;;38.42;14.75;;;;;;;12.72;52.75;100851.19;5016742;28;20076;-72
2021/04/01 06:18:41;;;;;;;40.22;15.15;;;;;;;12.84;52.86;100856.53;4977216;28;20503;-72
2021/04/01 06:21:12;;;;;;;35.35;15.43;;;;;;;12.83;53.03;100859.25;4997508;28;20117;-71
2021/04/01 06:23:41;;;;;;;23.02;12.90;;;;;;;12.97;53.09;100861.88;5010916;28;20056;-72
2021/04/01 06:26:16;;;;;;;34.67;15.73;;;;;;;12.85;52.70;100854.75;5007519;28;20148;-70
2021/04/01 06:28:55;;;;;;;31.70;14.53;;;;;;;12.96;52.10;100865.44;4990802;28;20057;-71
2021/04/01 06:31:26;;;;;;;39.15;15.52;;;;;;;13.12;51.67;100871.44;4992445;28;20575;-71
2021/04/01 06:33:57;;;;;;;27.30;12.73;;;;;;;13.28;51.61;100881.03;4985713;28;20472;-72
2021/04/01 06:36:31;;;;;;;38.65;15.27;;;;;;;13.31;51.38;100888.75;5010465;28;20052;-71
2021/04/01 06:38:58;;;;;;;38.55;15.85;;;;;;;13.24;51.24;100883.03;5028936;28;20084;-71
2021/04/01 06:41:29;;;;;;;38.75;15.80;;;;;;;13.23;51.02;100889.25;5008773;28;20049;-71
2021/04/01 06:43:55;;;;;;;43.40;15.27;;;;;;;13.57;50.73;100894.97;5022778;28;20551;-70
2021/04/01 06:46:27;;;;;;;31.83;14.82;;;;;;;13.74;50.52;100897.31;5022311;28;20168;-72
2021/04/01 06:52:08;;;;;;;42.05;16.08;;;;;;;14.26;48.49;100903.47;5015276;28;20048;-72
2021/04/01 06:54:47;;;;;;;36.65;15.23;;;;;;;14.11;49.00;100900.94;5035845;28;20145;-71
2021/04/01 06:57:52;;;;;;;31.10;14.82;;;;;;;14.27;48.23;100900.69;5000840;28;20049;-72
2021/04/01 07:00:39;;;;;;;36.15;14.30;;;;;;;14.34;48.15;100885.25;5015839;28;20060;-71
2021/04/01 07:03:25;;;;;;;29.60;14.35;;;;;;;14.28;48.44;100880.38;4982215;28;20445;-74
2021/04/01 07:05:56;;;;;;;41.55;15.77;;;;;;;14.43;48.36;100890.72;5001759;28;20054;-71
2021/04/01 07:11:09;;;;;;;37.03;16.08;;;;;;;14.61;47.56;100879.81;4997693;28;20559;-71
2021/04/01 07:13:46;;;;;;;36.72;14.70;;;;;;;14.01;48.12;100876.06;5000972;28;20046;-72
2021/04/01 07:16:33;;;;;;;31.83;15.80;;;;;;;13.82;49.47;100875.63;5000991;28;20388;-73
2021/04/01 07:36:03;;;;;;;31.10;16.55;;;;;;;14.03;49.41;100836.25;4984037;28;20051;-73
2021/04/01 07:47:02;;;;;;;40.65;17.02;;;;;;;16.15;45.21;100857.59;5009872;28;20064;-72
2021/04/01 07:49:30;;;;;;;31.25;17.23;;;;;;;16.36;44.81;100870.16;4998839;28;20045;-71
2021/04/01 07:52:02;;;;;;;36.88;17.50;;;;;;;16.71;43.67;100870.84;4999663;28;20088;-71
2021/04/01 07:54:53;;;;;;;40.65;18.38;;;;;;;16.98;43.43;100860.78;5000230;28;20061;-70
2021/04/01 08:05:15;;;;;;;36.38;18.08;;;;;;;16.64;42.66;100853.69;5021032;28;20057;-71
2021/04/01 08:07:49;;;;;;;42.42;18.65;;;;;;;16.86;42.67;100836.88;5006083;28;20081;-71
2021/04/01 08:10:17;;;;;;;33.72;18.65;;;;;;;16.82;42.36;100840.75;5006347;28;20062;-71
2021/04/01 08:12:48;;;;;;;40.33;19.52;;;;;;;16.45;42.21;100840.19;4976513;28;20107;-71
2021/04/01 08:15:20;;;;;;;34.80;19.10;;;;;;;16.37;43.60;100847.94;4993725;28;20068;-70
2021/04/01 08:20:35;;;;;;;39.85;20.73;;;;;;;16.47;42.84;100848.88;5026346;28;20098;-71
2021/04/01 08:23:30;;;;;;;37.20;19.20;;;;;;;16.71;42.56;100848.75;4995575;28;20411;-72
2021/04/01 08:26:39;;;;;;;44.85;22.65;;;;;;;17.11;41.16;100837.50;5011964;28;20053;-71
2021/04/01 08:30:48;;;;;;;45.22;21.60;;;;;;;17.57;40.09;100837.16;5007493;28;20050;-71
2021/04/01 08:35:56;;;;;;;55.30;22.80;;;;;;;17.08;40.80;100840.44;5023330;28;20185;-70
2021/04/01 08:38:43;;;;;;;52.53;24.23;;;;;;;16.53;41.30;100842.25;5032526;28;20050;-71
2021/04/01 08:41:36;;;;;;;47.03;25.27;;;;;;;16.61;40.70;100845.13;5014385;28;20067;-72
2021/04/01 08:44:35;;;;;;;49.03;24.08;;;;;;;16.56;40.96;100848.16;5005376;28;20037;-71
2021/04/01 08:47:20;;;;;;;53.20;25.50;;;;;;;16.60;41.02;100840.78;5000597;28;20084;-71
2021/04/01 08:50:04;;;;;;;52.95;24.55;;;;;;;16.52;41.17;100833.41;5013321;28;20058;-71
2021/04/01 08:53:08;;;;;;;45.03;24.25;;;;;;;16.37;41.21;100846.13;5023776;28;20084;-71
2021/04/01 08:55:47;;;;;;;52.75;25.40;;;;;;;16.30;41.84;100857.34;5025801;28;20283;-71
2021/04/01 09:02:05;;;;;;;50.17;24.63;;;;;;;15.95;41.53;100898.16;5019265;28;20168;-70
2021/04/01 09:04:33;;;;;;;48.00;25.60;;;;;;;15.99;41.36;100899.63;5024427;28;20060;-71
2021/04/01 09:07:07;;;;;;;51.15;25.73;;;;;;;15.91;41.69;100888.72;5028933;28;20064;-72
2021/04/01 09:09:35;;;;;;;52.30;24.73;;;;;;;15.88;42.24;100899.56;5030039;28;20116;-72
2021/04/01 09:12:23;;;;;;;61.30;26.92;;;;;;;15.66;42.27;100895.06;4996260;28;20517;-70
2021/04/01 09:15:03;;;;;;;55.55;25.98;;;;;;;15.85;42.42;100878.56;4975358;28;20042;-71
2021/04/01 09:17:35;;;;;;;56.35;26.92;;;;;;;16.01;42.09;100868.47;5015417;28;20465;-72
2021/04/01 09:20:19;;;;;;;43.17;24.83;;;;;;;16.16;41.26;100858.44;5011754;28;20121;-72
2021/04/01 09:22:54;;;;;;;49.00;25.77;;;;;;;16.42;42.60;100856.38;4995471;28;20045;-71
2021/04/01 09:25:22;;;;;;;50.70;26.38;;;;;;;16.53;43.85;100839.59;5013071;28;20057;-71
2021/04/01 09:27:56;;;;;;;46.42;25.88;;;;;;;16.36;42.71;100828.50;4982079;28;20412;-73
2021/04/01 09:30:23;;;;;;;46.47;27.42;;;;;;;16.43;44.96;100828.84;5014384;28;20122;-72
2021/04/01 09:32:52;;;;;;;51.28;27.45;;;;;;;16.60;43.22;100846.09;5009835;28;20045;-72
2021/04/01 09:35:19;;;;;;;48.55;25.90;;;;;;;16.70;45.37;100858.50;5005474;28;20081;-71
2021/04/01 09:37:50;;;;;;;47.60;25.05;;;;;;;16.62;46.59;100855.66;5012948;28;20140;-70
2021/04/01 09:40:17;;;;;;;45.58;26.40;;;;;;;16.75;47.25;100865.28;5012190;28;20073;-72
2021/04/01 09:42:47;;;;;;;49.03;26.58;;;;;;;16.80;45.56;100874.63;5013556;28;20045;-71
2021/04/01 09:45:26;;;;;;;51.80;27.40;;;;;;;17.05;44.41;100869.94;5026993;28;20060;-72
2021/04/01 09:47:59;;;;;;;46.85;26.92;;;;;;;17.38;44.80;100855.63;5009893;28;20054;-71
2021/04/01 09:50:33;;;;;;;54.47;26.70;;;;;;;17.59;43.34;100861.81;5002726;28;20064;-71
2021/04/01 09:53:03;;;;;;;52.05;29.02;;;;;;;17.99;42.94;100857.63;5012202;28;20142;-72
2021/04/01 09:55:39;;;;;;;49.67;27.63;;;;;;;17.87;42.61;100860.34;5011350;28;20661;-73
2021/04/01 09:58:38;;;;;;;44.95;27.55;;;;;;;17.98;42.52;100851.44;5011047;28;20072;-72
2021/04/01 10:04:04;;;;;;;48.67;27.95;;;;;;;18.46;41.76;100838.31;5014723;28;20057;-71
2021/04/01 10:06:35;;;;;;;50.60;26.67;;;;;;;18.84;41.34;100841.22;4976225;28;20064;-72
2021/04/01 10:09:06;;;;;;;49.53;29.38;;;;;;;18.71;41.16;100844.97;5008907;28;20057;-72
2021/04/01 10:11:42;;;;;;;50.80;28.48;;;;;;;18.10;40.90;100847.72;4988812;28;20823;-72
2021/04/01 10:14:11;;;;;;;65.57;28.23;;;;;;;18.33;41.40;100850.19;5001685;28;20133;-72
2021/04/01 10:16:59;;;;;;;62.20;29.42;;;;;;;18.32;41.96;100835.16;4988930;28;20053;-71
2021/04/01 10:19:30;;;;;;;53.67;30.30;;;;;;;18.00;42.01;100833.50;5011842;28;20117;-72
2021/04/01 10:21:57;;;;;;;77.38;29.20;;;;;;;17.79;43.38;100841.53;4992975;28;20041;-71
2021/04/01 10:24:30;;;;;;;76.65;30.88;;;;;;;17.51;43.53;100842.16;4992227;28;20041;-71
2021/04/01 10:27:21;;;;;;;60.25;29.15;;;;;;;17.61;44.37;100832.44;5014192;28;20148;-71
2021/04/01 10:32:16;;;;;;;53.33;29.33;;;;;;;17.84;43.55;100833.16;4997088;28;20095;-72
2021/04/01 10:35:07;;;;;;;72.18;28.23;;;;;;;18.04;43.59;100826.94;5003176;28;20048;-71
2021/04/01 10:37:34;;;;;;;54.63;28.52;;;;;;;18.18;44.01;100823.91;5001303;28;20138;-71
2021/04/01 10:40:06;;;;;;;52.30;29.30;;;;;;;18.14;42.92;100819.81;5007683;28;20061;-71
2021/04/01 10:42:34;;;;;;;69.65;29.13;;;;;;;18.10;43.22;100826.41;5003529;28;20081;-72
2021/04/01 10:45:15;;;;;;;55.05;28.70;;;;;;;17.80;43.68;100829.06;5006797;28;20057;-72
2021/04/01 10:47:54;;;;;;;53.33;30.73;;;;;;;17.44;44.96;100834.69;5003146;28;20073;-72
2021/04/01 10:50:21;;;;;;;68.80;29.88;;;;;;;17.04;45.02;100829.19;5010640;28;20067;-71
2021/04/01 10:52:48;;;;;;;56.85;29.73;;;;;;;17.09;44.94;100831.47;4987984;28;20046;-72
2021/04/01 10:55:14;;;;;;;66.93;31.42;;;;;;;16.94;44.58;100839.75;5009948;28;20041;-72
2021/04/01 10:57:41;;;;;;;66.47;30.40;;;;;;;17.11;43.56;100837.50;4981802;28;20052;-72
2021/04/01 11:00:11;;;;;;;68.47;30.40;;;;;;;17.06;43.33;100827.25;4983086;28;20136;-73
2021/04/01 11:02:48;;;;;;;62.03;29.65;;;;;;;16.89;43.74;100841.13;5012167;28;20048;-72
2021/04/01 11:05:17;;;;;;;70.88;30.45;;;;;;;16.98;43.56;100834.19;5027739;28;20069;-71
2021/04/01 11:07:48;;;;;;;62.15;31.23;;;;;;;16.89;43.46;100820.69;5030662;28;20059;-71
2021/04/01 11:10:29;;;;;;;56.92;30.95;;;;;;;17.04;43.15;100805.25;4992212;28;20572;-71
2021/04/01 11:12:59;;;;;;;51.35;29.85;;;;;;;17.14;42.68;100784.06;5002107;28;20045;-73
2021/04/01 11:15:31;;;;;;;53.50;29.98;;;;;;;17.23;43.22;100780.63;4997435;28;20133;-71
2021/04/01 11:18:04;;;;;;;55.33;31.13;;;;;;;17.36;43.30;100785.75;4989867;28;20072;-73
2021/04/01 11:20:33;;;;;;;57.22;30.88;;;;;;;17.63;43.86;100772.75;4971129;28;20049;-72
2021/04/01 11:23:05;;;;;;;55.10;31.38;;;;;;;17.88;42.57;100776.81;4992053;28;20262;-71
2021/04/01 11:25:34;;;;;;;49.60;29.73;;;;;;;18.07;42.12;100772.53;4986747;28;20046;-71
2021/04/01 11:28:02;;;;;;;50.92;28.73;;;;;;;18.20;41.14;100774.00;4992848;28;20468;-71
2021/04/01 11:30:51;;;;;;;51.15;30.00;;;;;;;18.38;41.29;100768.00;5006369;28;20056;-71
2021/04/01 11:33:19;;;;;;;56.47;29.90;;;;;;;18.96;38.74;100766.25;5005219;28;20061;-71
2021/04/01 11:36:00;;;;;;;57.03;30.30;;;;;;;19.20;38.03;100765.81;5014520;28;20132;-72
2021/04/01 11:38:29;;;;;;;53.47;28.83;;;;;;;18.83;37.87;100762.19;4997622;28;20068;-72
2021/04/01 11:41:01;;;;;;;53.97;28.70;;;;;;;18.76;38.24;100761.06;5012140;28;20136;-70
2021/04/01 11:43:32;;;;;;;58.33;31.33;;;;;;;18.34;38.00;100761.25;4993035;28;20044;-71
2021/04/01 11:46:11;;;;;;;56.22;30.52;;;;;;;18.45;38.99;100772.63;4969041;28;20129;-71
2021/04/01 11:48:39;;;;;;;54.67;29.23;;;;;;;18.36;39.01;100775.28;5009758;28;20140;-71
2021/04/01 11:51:17;;;;;;;54.00;29.48;;;;;;;18.51;39.64;100781.91;4989791;28;20085;-71
2021/04/01 11:53:45;;;;;;;48.97;28.42;;;;;;;18.94;38.72;100788.72;5017519;28;20045;-71
2021/04/01 11:56:15;;;;;;;57.90;29.50;;;;;;;19.14;38.07;100798.41;5021181;28;20156;-71
2021/04/01 11:58:42;;;;;;;64.55;29.55;;;;;;;18.82;38.45;100803.16;5022864;28;20075;-71
2021/04/01 12:01:33;;;;;;;53.80;28.30;;;;;;;18.83;38.30;100794.19;5005821;28;20484;-72
2021/04/01 12:04:03;;;;;;;66.90;31.38;;;;;;;18.76;37.84;100787.72;5008644;28;20062;-71
2021/04/01 12:06:31;;;;;;;67.15;30.95;;;;;;;18.97;37.96;100789.28;5010183;28;20055;-71
2021/04/01 12:08:58;;;;;;;50.65;28.30;;;;;;;19.15;38.00;100785.91;4984063;28;20049;-71
2021/04/01 12:11:27;;;;;;;59.88;30.63;;;;;;;19.52;37.10;100780.63;4990619;28;20114;-71
2021/04/01 12:14:14;;;;;;;57.55;29.65;;;;;;;19.66;36.20;100779.38;4978511;28;21070;-72
2021/04/01 12:16:41;;;;;;;66.10;30.75;;;;;;;19.48;36.03;100773.91;5024812;28;20049;-72
2021/04/01 12:19:08;;;;;;;65.80;31.52;;;;;;;18.95;36.62;100775.22;5008401;28;20065;-71
2021/04/01 12:21:35;;;;;;;53.22;29.52;;;;;;;18.67;37.25;100782.22;5015099;28;20041;-72
2021/04/01 12:24:04;;;;;;;57.20;30.33;;;;;;;18.37;37.75;100788.50;5008326;28;20091;-71
2021/04/01 12:26:45;;;;;;;53.85;29.58;;;;;;;18.59;37.41;100792.72;5019065;28;20077;-71
2021/04/01 12:29:12;;;;;;;53.53;28.83;;;;;;;18.80;37.18;100789.13;5037425;28;20053;-71
2021/04/01 12:31:41;;;;;;;59.35;29.50;;;;;;;18.70;36.72;100797.97;5015103;28;20049;-72
2021/04/01 12:34:11;;;;;;;59.13;32.25;;;;;;;18.25;37.07;100792.25;5021044;28;20053;-70
2021/04/01 12:36:41;;;;;;;56.50;29.88;;;;;;;18.24;37.65;100798.56;4987631;28;20053;-71
2021/04/01 12:39:09;;;;;;;57.67;29.98;;;;;;;18.20;37.55;100786.47;4996639;28;20049;-71
2021/04/01 12:41:38;;;;;;;52.75;30.25;;;;;;;18.61;36.54;100781.94;4982023;28;20057;-71
2021/04/01 12:44:05;;;;;;;63.33;31.25;;;;;;;18.92;36.10;100788.88;5014579;28;20056;-72
2021/04/01 12:46:37;;;;;;;53.53;28.48;;;;;;;18.93;35.64;100779.03;4987263;28;20046;-71
2021/04/01 12:49:04;;;;;;;52.35;28.10;;;;;;;19.42;35.19;100774.50;5022716;28;20077;-71
2021/04/01 12:51:45;;;;;;;50.08;26.77;;;;;;;19.50;35.88;100785.28;4991561;28;20053;-70
2021/04/01 12:54:16;;;;;;;49.15;28.38;;;;;;;19.52;36.92;100780.63;5014317;28;20057;-73